createdAt,value
2022-09-14T00:01:25.767Z,72.67
2022-09-14T00:03:55.080Z,72.45
2022-09-14T00:06:22.380Z,72.48
2022-09-14T00:08:51.075Z,73.46
2022-09-14T00:11:18.781Z,72.79
2022-09-14T00:13:46.207Z,73.43
2022-09-14T00:16:21.459Z,73.03
2022-09-14T00:18:52.499Z,73.72
2022-09-14T00:21:20.521Z,72.98
2022-09-14T00:23:48.037Z,73.22
2022-09-14T00:26:16.698Z,73.89
2022-09-14T00:28:47.961Z,73.12
2022-09-14T00:31:15.728Z,73.11
2022-09-14T00:33:43.959Z,73.44
2022-09-14T00:36:15.371Z,73.35
2022-09-14T00:38:43.184Z,73.33
2022-09-14T00:41:15.266Z,74.20
2022-09-14T00:43:51.576Z,73.95
2022-09-14T00:46:18.831Z,74.20
2022-09-14T00:48:46.095Z,74.01
2022-09-14T00:51:14.396Z,73.97
2022-09-14T00:53:42.139Z,73.56
2022-09-14T00:56:09.707Z,74.39
2022-09-14T00:58:37.167Z,74.83
2022-09-14T01:01:04.678Z,73.94
2022-09-14T01:03:32.009Z,74.51
2022-09-14T01:06:09.040Z,75.46
2022-09-14T01:08:41.675Z,75.42
2022-09-14T01:11:18.291Z,74.87
2022-09-14T01:14:03.844Z,75.44
2022-09-14T01:16:36.575Z,75.36
2022-09-14T01:19:14.953Z,76.28
2022-09-14T01:21:42.899Z,76.62
2022-09-14T01:24:22.318Z,76.05
2022-09-14T01:27:01.917Z,76.14
2022-09-14T01:29:29.756Z,76.20
2022-09-14T01:31:56.798Z,76.90
2022-09-14T01:34:46.985Z,76.27
2022-09-14T01:37:19.645Z,76.19
2022-09-14T01:39:50.619Z,76.09
2022-09-14T01:42:18.851Z,76.24
2022-09-14T01:44:48.237Z,76.69
2022-09-14T01:47:28.868Z,77.12
2022-09-14T01:49:58.631Z,76.69
2022-09-14T01:52:28.696Z,76.13
2022-09-14T01:54:59.233Z,76.14
2022-09-14T01:57:48.031Z,77.15
2022-09-14T02:00:18.282Z,76.06
2022-09-14T02:02:52.696Z,76.63
2022-09-14T02:05:25.168Z,76.32
2022-09-14T02:07:52.369Z,76.48
2022-09-14T02:10:20.040Z,75.86
2022-09-14T02:12:47.320Z,76.03
2022-09-14T02:15:15.505Z,75.96
2022-09-14T02:17:43.226Z,76.29
2022-09-14T02:20:15.380Z,76.58
2022-09-14T02:22:42.726Z,76.53
2022-09-14T02:25:10.085Z,76.14
2022-09-14T02:27:37.981Z,76.14
2022-09-14T02:30:05.265Z,77.10
2022-09-14T02:32:32.457Z,76.55
2022-09-14T02:35:18.650Z,76.83
2022-09-14T02:37:54.968Z,76.98
2022-09-14T02:40:36.335Z,77.15
2022-09-14T02:43:03.557Z,77.76
2022-09-14T02:45:49.654Z,77.13
2022-09-14T02:48:17.219Z,76.95
2022-09-14T02:50:50.673Z,77.83
2022-09-14T02:53:18.036Z,78.21
2022-09-14T02:55:48.745Z,77.32
2022-09-14T02:58:16.496Z,77.90
2022-09-14T03:00:45.613Z,78.00
2022-09-14T03:03:13.896Z,77.86
2022-09-14T03:05:41.725Z,78.10
2022-09-14T03:08:10.578Z,77.84
2022-09-14T03:10:38.044Z,77.77
2022-09-14T03:13:05.689Z,78.27
2022-09-14T03:15:33.243Z,79.06
2022-09-14T03:18:00.323Z,78.39
2022-09-14T03:20:28.686Z,78.97
2022-09-14T03:22:56.094Z,79.19
2022-09-14T03:25:23.397Z,79.30
2022-09-14T03:27:51.703Z,79.24
2022-09-14T03:30:19.085Z,78.43
2022-09-14T03:32:46.263Z,78.43
2022-09-14T03:35:14.199Z,78.87
2022-09-14T03:37:42.449Z,77.95
2022-09-14T03:40:10.570Z,78.90
2022-09-14T03:42:41.912Z,78.87
2022-09-14T03:45:09.493Z,78.51
2022-09-14T03:47:36.534Z,78.88
2022-09-14T03:50:03.904Z,79.08
2022-09-14T03:52:31.265Z,79.60
2022-09-14T03:54:58.420Z,79.50
2022-09-14T03:57:25.640Z,80.87
2022-09-14T03:59:52.935Z,81.01
2022-09-14T04:02:20.836Z,81.64
2022-09-14T04:04:48.555Z,81.90
2022-09-14T04:07:15.974Z,81.94
2022-09-14T04:09:43.572Z,82.23
2022-09-14T04:12:10.810Z,84.20
2022-09-14T04:14:37.985Z,84.00
2022-09-14T04:17:05.222Z,85.09
2022-09-14T04:19:37.697Z,85.52
2022-09-14T04:22:05.546Z,85.41
2022-09-14T04:24:32.868Z,86.25
2022-09-14T04:27:00.501Z,86.97
2022-09-14T04:29:30.615Z,87.20
2022-09-14T04:31:58.170Z,86.87
2022-09-14T04:34:25.975Z,86.66
2022-09-14T04:36:53.493Z,87.28
2022-09-14T04:39:20.719Z,87.59
2022-09-14T04:41:48.682Z,87.22
2022-09-14T04:44:16.066Z,87.81
2022-09-14T04:46:46.636Z,88.01
2022-09-14T04:49:15.587Z,87.75
2022-09-14T04:51:42.850Z,87.67
2022-09-14T04:54:10.268Z,88.70
2022-09-14T04:56:37.797Z,89.26
2022-09-14T04:59:05.898Z,88.39
2022-09-14T05:01:34.941Z,89.23
2022-09-14T05:04:02.678Z,89.30
2022-09-14T05:06:32.003Z,89.59
2022-09-14T05:09:00.205Z,89.31
2022-09-14T05:11:29.287Z,89.01
2022-09-14T05:13:57.445Z,89.10
2022-09-14T05:16:26.488Z,89.47
2022-09-14T05:18:55.115Z,89.04
2022-09-14T05:21:22.997Z,89.81
2022-09-14T05:24:15.024Z,90.16
2022-09-14T05:26:43.685Z,90.18
2022-09-14T05:29:12.727Z,89.63
2022-09-14T05:31:39.942Z,89.98
2022-09-14T05:34:07.326Z,90.09
2022-09-14T05:36:35.843Z,90.53
2022-09-14T05:39:03.580Z,90.43
2022-09-14T05:41:30.935Z,90.11
2022-09-14T05:44:01.124Z,91.10
2022-09-14T05:46:28.534Z,90.62
2022-09-14T05:48:55.681Z,90.70
2022-09-14T05:51:24.966Z,91.25
2022-09-14T05:53:53.866Z,91.03
2022-09-14T05:56:21.828Z,91.11
2022-09-14T05:58:49.293Z,90.99
2022-09-14T06:01:16.465Z,91.04
2022-09-14T06:03:44.101Z,91.42
2022-09-14T06:06:12.341Z,91.07
2022-09-14T06:08:39.709Z,91.29
2022-09-14T06:11:08.394Z,91.40
2022-09-14T06:13:36.177Z,91.65
2022-09-14T06:16:04.374Z,91.50
2022-09-14T06:18:32.478Z,91.35
2022-09-14T06:20:59.892Z,91.93
2022-09-14T06:23:28.976Z,91.86
2022-09-14T06:25:56.817Z,91.19
2022-09-14T06:28:24.913Z,91.54
2022-09-14T06:30:52.535Z,91.79
2022-09-14T06:33:20.849Z,91.37
2022-09-14T06:35:58.671Z,92.06
2022-09-14T06:38:26.294Z,92.16
2022-09-14T06:41:00.931Z,92.09
2022-09-14T06:43:29.468Z,91.46
2022-09-14T06:46:00.569Z,91.70
2022-09-14T06:48:28.838Z,92.13
2022-09-14T06:50:56.158Z,92.33
2022-09-14T06:53:23.449Z,92.01
2022-09-14T06:55:51.250Z,92.12
2022-09-14T06:58:19.009Z,92.04
2022-09-14T07:00:46.407Z,92.07
2022-09-14T07:03:16.072Z,92.35
2022-09-14T07:05:43.754Z,92.19
2022-09-14T07:08:12.432Z,91.92
2022-09-14T07:10:40.300Z,91.72
2022-09-14T07:13:07.665Z,91.65
2022-09-14T07:15:34.992Z,91.89
2022-09-14T07:18:02.653Z,91.95
2022-09-14T07:20:30.229Z,91.95
2022-09-14T07:22:57.443Z,91.67
2022-09-14T07:25:24.951Z,92.25
2022-09-14T07:27:52.125Z,91.82
2022-09-14T07:30:19.345Z,91.98
2022-09-14T07:32:46.647Z,92.20
2022-09-14T07:35:13.930Z,92.35
2022-09-14T07:37:41.065Z,92.43
2022-09-14T07:40:10.026Z,92.82
2022-09-14T07:42:38.132Z,92.93
2022-09-14T07:45:05.922Z,92.73
2022-09-14T07:47:33.173Z,93.03
2022-09-14T07:50:00.723Z,92.83
2022-09-14T07:52:27.953Z,93.25
2022-09-14T07:54:56.381Z,92.74
2022-09-14T07:57:39.377Z,93.21
2022-09-14T08:00:11.861Z,93.33
2022-09-14T08:02:39.093Z,93.57
2022-09-14T08:05:06.397Z,93.55
2022-09-14T08:07:33.736Z,93.02
2022-09-14T08:10:02.301Z,93.56
2022-09-14T08:12:30.039Z,93.85
2022-09-14T08:14:57.788Z,93.73
2022-09-14T08:17:25.331Z,93.42
2022-09-14T08:19:52.809Z,93.42
2022-09-14T08:22:20.828Z,93.30
2022-09-14T08:24:47.989Z,93.17
2022-09-14T08:27:17.254Z,93.13
2022-09-14T08:29:44.504Z,93.05
2022-09-14T08:32:12.861Z,92.77
2022-09-14T08:34:39.962Z,93.28
2022-09-14T08:37:07.434Z,93.50
2022-09-14T08:39:34.426Z,94.03
2022-09-14T08:42:02.691Z,93.63
2022-09-14T08:44:31.858Z,93.85
2022-09-14T08:47:03.353Z,94.15
2022-09-14T08:49:37.125Z,93.67
2022-09-14T08:52:04.932Z,93.11
2022-09-14T08:54:33.505Z,93.36
2022-09-14T08:57:07.517Z,93.92
2022-09-14T08:59:37.484Z,93.54
2022-09-14T09:02:18.425Z,93.93
2022-09-14T09:04:57.579Z,93.89
2022-09-14T09:07:43.174Z,93.90
2022-09-14T09:10:12.293Z,94.10
2022-09-14T09:12:51.393Z,94.00
2022-09-14T09:15:21.950Z,93.90
2022-09-14T09:17:53.324Z,94.20
2022-09-14T09:20:23.712Z,94.42
2022-09-14T09:22:55.252Z,94.04
2022-09-14T09:25:24.099Z,94.16
2022-09-14T09:27:51.606Z,94.24
2022-09-14T09:30:18.797Z,94.26
2022-09-14T09:32:46.571Z,94.59
2022-09-14T09:35:37.244Z,94.57
2022-09-14T09:38:17.205Z,94.35
2022-09-14T09:40:47.359Z,93.73
2022-09-14T09:43:28.699Z,93.07
2022-09-14T09:46:01.763Z,93.16
2022-09-14T09:48:33.739Z,93.45
2022-09-14T09:51:03.845Z,93.51
2022-09-14T09:53:32.821Z,93.76
2022-09-14T09:56:00.370Z,93.77
2022-09-14T09:58:28.173Z,93.96
2022-09-14T10:00:57.217Z,94.24
2022-09-14T10:03:29.400Z,94.21
2022-09-14T10:06:02.172Z,94.30
2022-09-14T10:08:35.060Z,93.79
2022-09-14T10:11:03.472Z,94.22
2022-09-14T10:13:38.558Z,94.14
2022-09-14T10:16:16.600Z,93.86
2022-09-14T10:18:48.837Z,94.26
2022-09-14T10:21:18.062Z,94.58
2022-09-14T10:23:45.602Z,94.60
2022-09-14T10:26:13.023Z,94.50
2022-09-14T10:28:42.424Z,94.20
2022-09-14T10:31:15.712Z,94.07
2022-09-14T10:33:43.229Z,93.73
2022-09-14T10:36:17.968Z,93.92
2022-09-14T10:38:46.130Z,94.03
2022-09-14T10:41:32.196Z,94.33
2022-09-14T10:44:05.724Z,93.96
2022-09-14T10:46:51.843Z,94.26
2022-09-14T10:49:26.062Z,94.28
2022-09-14T10:51:53.902Z,93.68
2022-09-14T10:54:21.443Z,93.74
2022-09-14T10:56:51.609Z,93.89
2022-09-14T10:59:19.768Z,93.45
2022-09-14T11:02:04.337Z,93.72
2022-09-14T11:05:07.516Z,93.56
2022-09-14T11:07:39.095Z,93.75
2022-09-14T11:10:09.443Z,93.85
2022-09-14T11:12:48.881Z,93.63
2022-09-14T11:15:29.004Z,93.69
2022-09-14T11:18:11.317Z,93.96
2022-09-14T11:20:51.258Z,93.49
2022-09-14T11:23:24.506Z,93.46
2022-09-14T11:25:56.772Z,93.07
2022-09-14T11:28:27.995Z,93.10
2022-09-14T11:30:56.750Z,93.14
2022-09-14T11:33:26.912Z,93.30
2022-09-14T11:36:00.974Z,93.45
2022-09-14T11:38:42.009Z,93.90
2022-09-14T11:41:12.285Z,94.01
2022-09-14T11:43:48.759Z,93.93
2022-09-14T11:46:16.206Z,93.35
2022-09-14T11:48:46.192Z,93.68
2022-09-14T11:51:16.002Z,93.88
2022-09-14T11:53:43.728Z,93.59
2022-09-14T11:56:23.619Z,93.67
2022-09-14T11:58:51.059Z,93.33
2022-09-14T12:01:44.606Z,93.23
2022-09-14T12:04:15.881Z,93.18
2022-09-14T12:06:50.516Z,93.06
2022-09-14T12:09:17.663Z,92.96
2022-09-14T12:11:45.594Z,92.95
2022-09-14T12:14:14.269Z,93.01
2022-09-14T12:17:00.114Z,92.10
2022-09-14T12:19:27.625Z,92.16
2022-09-14T12:21:55.372Z,91.82
2022-09-14T12:24:23.404Z,90.74
2022-09-14T12:26:50.752Z,90.95
2022-09-14T12:29:27.036Z,90.76
2022-09-14T12:31:55.125Z,91.09
2022-09-14T12:34:23.526Z,90.63
2022-09-14T12:36:50.499Z,90.03
2022-09-14T12:39:28.907Z,89.68
2022-09-14T12:41:56.092Z,90.11
2022-09-14T12:44:34.130Z,89.96
2022-09-14T12:47:19.910Z,89.81
2022-09-14T12:49:49.011Z,88.91
2022-09-14T12:52:42.762Z,88.50
2022-09-14T12:55:31.482Z,88.75
2022-09-14T12:58:06.147Z,88.64
2022-09-14T13:00:45.257Z,88.44
2022-09-14T13:03:47.821Z,88.53
2022-09-14T13:06:15.249Z,88.50
2022-09-14T13:08:46.420Z,88.43
2022-09-14T13:11:24.324Z,88.01
2022-09-14T13:13:51.705Z,87.96
2022-09-14T13:16:23.091Z,88.11
2022-09-14T13:18:50.473Z,87.78
2022-09-14T13:21:22.624Z,87.31
2022-09-14T13:23:50.040Z,87.27
2022-09-14T13:26:22.071Z,87.44
2022-09-14T13:28:52.866Z,87.22
2022-09-14T13:31:28.024Z,87.04
2022-09-14T13:33:55.994Z,86.56
2022-09-14T13:36:25.550Z,85.97
2022-09-14T13:38:53.870Z,86.11
2022-09-14T13:41:25.150Z,86.22
2022-09-14T13:43:55.308Z,85.60
2022-09-14T13:46:24.394Z,85.79
2022-09-14T13:48:52.489Z,86.03
2022-09-14T13:51:25.334Z,85.71
2022-09-14T13:53:54.082Z,85.44
2022-09-14T13:56:21.191Z,86.02
2022-09-14T13:58:50.163Z,85.52
2022-09-14T14:01:25.547Z,85.33
2022-09-14T14:03:53.213Z,85.02
2022-09-14T14:06:22.057Z,85.25
2022-09-14T14:09:09.128Z,85.07
2022-09-14T14:11:41.808Z,84.93
2022-09-14T14:14:30.783Z,84.70
2022-09-14T14:17:13.987Z,84.64
2022-09-14T14:19:41.510Z,84.23
2022-09-14T14:22:14.659Z,84.54
2022-09-14T14:25:09.197Z,84.63
2022-09-14T14:27:30.328Z,84.96
2022-09-14T14:29:58.542Z,84.14
2022-09-14T14:32:26.053Z,84.35
2022-09-14T14:34:53.868Z,84.05
2022-09-14T14:37:21.976Z,83.88
2022-09-14T14:39:49.962Z,83.67
2022-09-14T14:42:17.330Z,83.80
2022-09-14T14:44:45.318Z,83.83
2022-09-14T14:47:13.488Z,83.78
2022-09-14T14:49:40.516Z,83.60
2022-09-14T14:52:07.746Z,83.88
2022-09-14T14:54:35.319Z,83.77
2022-09-14T14:57:02.670Z,83.62
2022-09-14T14:59:31.228Z,83.64
2022-09-14T15:01:58.637Z,83.58
2022-09-14T15:04:25.950Z,83.35
2022-09-14T15:06:53.877Z,83.30
2022-09-14T15:09:23.065Z,83.13
2022-09-14T15:11:51.106Z,83.37
2022-09-14T15:14:19.846Z,83.27
2022-09-14T15:16:49.047Z,82.86
2022-09-14T15:19:16.763Z,82.85
2022-09-14T15:21:44.117Z,82.62
2022-09-14T15:24:11.462Z,82.94
2022-09-14T15:26:38.862Z,82.76
2022-09-14T15:29:06.548Z,82.76
2022-09-14T15:31:33.781Z,82.80
2022-09-14T15:34:00.989Z,82.80
2022-09-14T15:36:40.914Z,82.60
2022-09-14T15:39:10.358Z,82.56
2022-09-14T15:41:37.939Z,82.28
2022-09-14T15:44:05.672Z,82.25
2022-09-14T15:46:33.549Z,82.42
2022-09-14T15:49:04.750Z,82.22
2022-09-14T15:51:33.914Z,82.30
2022-09-14T15:54:01.852Z,82.68
2022-09-14T15:56:29.406Z,82.36
2022-09-14T15:59:00.158Z,82.23
2022-09-14T16:01:28.149Z,82.16
2022-09-14T16:04:01.667Z,82.16
2022-09-14T16:06:29.383Z,81.91
2022-09-14T16:08:57.806Z,81.87
2022-09-14T16:11:25.452Z,81.99
2022-09-14T16:13:54.154Z,81.83
2022-09-14T16:16:21.498Z,81.89
2022-09-14T16:18:50.417Z,81.63
2022-09-14T16:21:22.461Z,81.69
2022-09-14T16:23:51.130Z,81.59
2022-09-14T16:26:20.870Z,81.53
2022-09-14T16:28:49.230Z,81.61
2022-09-14T16:31:20.947Z,81.56
2022-09-14T16:33:49.697Z,81.59
2022-09-14T16:36:19.921Z,81.59
2022-09-14T16:38:47.262Z,81.31
2022-09-14T16:41:15.183Z,81.49
2022-09-14T16:43:42.801Z,81.41
2022-09-14T16:46:14.643Z,81.34
2022-09-14T16:48:43.914Z,81.37
2022-09-14T16:51:11.993Z,81.17
2022-09-14T16:53:41.286Z,81.44
2022-09-14T16:56:09.806Z,81.35
2022-09-14T16:58:37.888Z,81.30
2022-09-14T17:01:08.713Z,81.21
2022-09-14T17:03:36.790Z,81.21
2022-09-14T17:06:04.907Z,81.21
2022-09-14T17:08:33.163Z,81.35
2022-09-14T17:11:00.621Z,81.30
2022-09-14T17:13:28.214Z,81.30
2022-09-14T17:16:06.046Z,81.23
2022-09-14T17:18:34.165Z,81.49
2022-09-14T17:21:03.174Z,81.17
2022-09-14T17:23:30.623Z,81.14
2022-09-14T17:25:58.058Z,81.31
2022-09-14T17:28:26.721Z,81.12
2022-09-14T17:30:55.504Z,81.30
2022-09-14T17:33:24.388Z,81.42
2022-09-14T17:35:52.709Z,81.29
2022-09-14T17:38:21.913Z,81.28
2022-09-14T17:40:49.639Z,81.41
2022-09-14T17:43:19.330Z,81.30
2022-09-14T17:45:55.154Z,81.23
2022-09-14T17:48:22.924Z,81.30
2022-09-14T17:50:50.196Z,81.18
2022-09-14T17:53:17.550Z,81.43
2022-09-14T17:55:44.910Z,81.21
2022-09-14T17:58:14.442Z,81.31
2022-09-14T18:00:46.415Z,81.24
2022-09-14T18:03:14.143Z,81.36
2022-09-14T18:05:41.750Z,81.19
2022-09-14T18:08:11.729Z,81.39
2022-09-14T18:10:39.332Z,81.59
2022-09-14T18:13:06.399Z,81.42
2022-09-14T18:15:38.218Z,81.58
2022-09-14T18:18:07.503Z,81.62
2022-09-14T18:20:35.225Z,81.58
2022-09-14T18:23:02.329Z,81.81
2022-09-14T18:25:30.076Z,81.57
2022-09-14T18:27:57.922Z,81.60
2022-09-14T18:30:25.386Z,81.67
2022-09-14T18:32:53.046Z,81.80
2022-09-14T18:35:21.057Z,81.94
2022-09-14T18:37:48.119Z,81.86
2022-09-14T18:40:20.013Z,82.29
2022-09-14T18:42:48.828Z,82.27
2022-09-14T18:45:16.157Z,82.02
2022-09-14T18:47:44.350Z,82.17
2022-09-14T18:50:12.015Z,82.21
2022-09-14T18:52:39.235Z,82.12
2022-09-14T18:55:09.936Z,82.33
2022-09-14T18:57:37.713Z,82.59
2022-09-14T19:00:05.319Z,82.66
2022-09-14T19:02:32.567Z,82.64
2022-09-14T19:05:00.087Z,82.26
2022-09-14T19:07:27.834Z,82.30
2022-09-14T19:09:58.900Z,82.06
2022-09-14T19:12:26.482Z,82.46
2022-09-14T19:14:54.053Z,82.23
2022-09-14T19:17:21.405Z,82.39
2022-09-14T19:19:49.664Z,82.28
2022-09-14T19:22:17.189Z,82.17
2022-09-14T19:24:44.643Z,82.33
2022-09-14T19:27:12.161Z,82.15
2022-09-14T19:29:39.498Z,82.24
2022-09-14T19:32:06.806Z,82.43
2022-09-14T19:34:34.098Z,82.37
2022-09-14T19:37:01.321Z,82.50
2022-09-14T19:39:28.925Z,82.48
2022-09-14T19:41:56.928Z,82.41
2022-09-14T19:44:24.383Z,82.49
2022-09-14T19:46:51.545Z,82.33
2022-09-14T19:49:23.955Z,82.54
2022-09-14T19:51:51.433Z,82.43
2022-09-14T19:54:18.917Z,82.30
2022-09-14T19:56:46.888Z,82.44
2022-09-14T19:59:14.770Z,82.33
2022-09-14T20:01:42.334Z,82.53
2022-09-14T20:04:11.004Z,82.08
2022-09-14T20:06:40.585Z,82.30
2022-09-14T20:09:09.426Z,82.37
2022-09-14T20:11:38.156Z,82.22
2022-09-14T20:14:06.078Z,82.45
2022-09-14T20:16:35.264Z,82.29
2022-09-14T20:19:04.721Z,82.43
2022-09-14T20:21:31.923Z,82.52
2022-09-14T20:24:17.708Z,82.51
2022-09-14T20:26:46.466Z,82.09
2022-09-14T20:29:14.461Z,82.36
2022-09-14T20:31:41.579Z,82.24
2022-09-14T20:34:09.246Z,82.31
2022-09-14T20:36:36.741Z,82.48
2022-09-14T20:39:04.129Z,82.47
2022-09-14T20:41:34.534Z,82.52
2022-09-14T20:44:02.364Z,82.50
2022-09-14T20:46:32.009Z,82.40
2022-09-14T20:48:59.363Z,82.21
2022-09-14T20:51:26.797Z,82.30
2022-09-14T20:53:56.290Z,82.46
2022-09-14T20:56:26.865Z,82.04
2022-09-14T20:58:58.406Z,82.30
2022-09-14T21:01:27.656Z,82.30
2022-09-14T21:03:55.528Z,82.16
2022-09-14T21:06:24.141Z,82.33
2022-09-14T21:08:52.047Z,82.34
2022-09-14T21:11:26.634Z,82.37
2022-09-14T21:13:55.313Z,82.10
2022-09-14T21:16:24.948Z,82.30
2022-09-14T21:18:53.883Z,82.28
2022-09-14T21:21:21.490Z,82.45
2022-09-14T21:23:48.978Z,82.51
2022-09-14T21:26:16.753Z,82.11
2022-09-14T21:28:44.033Z,82.12
2022-09-14T21:31:12.642Z,82.13
2022-09-14T21:33:41.090Z,82.19
2022-09-14T21:36:19.173Z,82.21
2022-09-14T21:38:50.178Z,82.35
2022-09-14T21:41:18.739Z,82.06
2022-09-14T21:43:46.293Z,82.33
2022-09-14T21:46:13.823Z,82.21
2022-09-14T21:48:41.079Z,82.37
2022-09-14T21:51:15.270Z,82.57
2022-09-14T21:53:44.665Z,82.62
2022-09-14T21:56:11.924Z,82.51
2022-09-14T21:58:39.423Z,82.68
2022-09-14T22:01:06.696Z,82.79
2022-09-14T22:03:34.222Z,82.46
2022-09-14T22:06:03.008Z,82.48
2022-09-14T22:08:31.333Z,82.42
2022-09-14T22:11:02.439Z,82.22
2022-09-14T22:13:30.379Z,82.53
2022-09-14T22:15:57.821Z,82.48
2022-09-14T22:18:25.418Z,82.40
2022-09-14T22:20:56.708Z,82.39
2022-09-14T22:23:24.440Z,82.59
2022-09-14T22:25:51.915Z,82.52
2022-09-14T22:28:19.777Z,82.86
2022-09-14T22:30:55.005Z,82.67
2022-09-14T22:33:23.578Z,82.73
2022-09-14T22:35:59.018Z,83.03
2022-09-14T22:38:27.777Z,82.72
2022-09-14T22:40:57.380Z,83.04
2022-09-14T22:43:24.981Z,82.78
2022-09-14T22:45:52.641Z,82.77
2022-09-14T22:48:20.978Z,82.82
2022-09-14T22:50:48.821Z,82.89
2022-09-14T22:53:16.627Z,83.08
2022-09-14T22:55:44.972Z,82.84
2022-09-14T22:58:14.244Z,82.91
2022-09-14T23:00:42.361Z,82.89
2022-09-14T23:03:10.259Z,82.98
2022-09-14T23:05:37.935Z,82.96
2022-09-14T23:08:06.246Z,82.98
2022-09-14T23:10:37.285Z,82.97
2022-09-14T23:13:04.690Z,82.63
2022-09-14T23:15:32.377Z,82.92
2022-09-14T23:17:59.507Z,82.97
2022-09-14T23:20:26.804Z,82.73
2022-09-14T23:22:54.455Z,82.78
2022-09-14T23:25:21.920Z,82.83
2022-09-14T23:27:49.263Z,82.75
2022-09-14T23:30:16.942Z,83.04
2022-09-14T23:32:44.121Z,82.94
2022-09-14T23:35:11.813Z,82.81
2022-09-14T23:37:39.456Z,82.93
2022-09-14T23:40:07.078Z,82.91
2022-09-14T23:42:34.499Z,82.81
2022-09-14T23:45:01.941Z,82.75
2022-09-14T23:47:30.451Z,83.12
2022-09-14T23:49:58.129Z,82.93
2022-09-14T23:52:25.491Z,83.22
2022-09-14T23:54:52.911Z,82.74
2022-09-14T23:57:20.639Z,82.79
2022-09-14T23:59:48.170Z,82.89
